Time;durP1;ratioP1;P1;durP2;ratioP2;P2;SDS_P1;SDS_P2;PMS_P1;PMS_P2;Temp;Humidity;BMP_temperature;BMP_pressure;BME280_temperature;BME280_humidity;BME280_pressure;Samples;Min_cycle;Max_cycle;Signal;HPM_P1;HPM_P2
2023/12/14 00:03:02;;;;;;;12.68;10.40;;;;;;;;;;5588347;31;34844;-76
2023/12/14 00:06:05;;;;;;;13.75;11.15;;;;;;;;;;5588054;31;35313;-77
2023/12/14 00:09:08;;;;;;;13.45;10.80;;;;;;;;;;5587923;31;35338;-76
2023/12/14 00:12:11;;;;;;;13.05;10.73;;;;;;;;;;5588283;31;34561;-76
2023/12/14 00:15:13;;;;;;;14.57;11.55;;;;;;;;;;5587748;31;34514;-76
2023/12/14 00:18:16;;;;;;;12.88;10.63;;;;;;;;;;5588579;31;34815;-76
2023/12/14 00:21:18;;;;;;;12.48;10.38;;;;;;;;;;5590521;31;34642;-76
2023/12/14 00:24:21;;;;;;;13.38;11.30;;;;;;;;;;5590169;31;34578;-77
2023/12/14 00:27:23;;;;;;;13.38;11.00;;;;;;;;;;5590071;31;35428;-76
2023/12/14 00:30:26;;;;;;;15.13;11.65;;;;;;;;;;5590055;31;35335;-76
2023/12/14 00:33:29;;;;;;;14.40;11.43;;;;;;;;;;5589898;31;35423;-76
2023/12/14 00:36:32;;;;;;;14.98;11.88;;;;;;;;;;5590037;31;35447;-76
2023/12/14 00:39:35;;;;;;;16.33;12.00;;;;;;;;;;5590410;31;34681;-76
2023/12/14 00:42:38;;;;;;;15.85;12.27;;;;;;;;;;5590079;31;35361;-75
2023/12/14 00:45:41;;;;;;;17.02;12.75;;;;;;;;;;5590024;31;34575;-75
2023/12/14 00:48:44;;;;;;;16.20;12.30;;;;;;;;;;5589929;31;34967;-76
2023/12/14 00:51:46;;;;;;;16.15;12.32;;;;;;;;;;5589873;31;35306;-75
2023/12/14 00:54:49;;;;;;;14.85;11.80;;;;;;;;;;5589812;31;35382;-74
2023/12/14 00:57:51;;;;;;;13.90;11.48;;;;;;;;;;5588936;31;34632;-75
2023/12/14 01:00:54;;;;;;;13.50;10.98;;;;;;;;;;5589793;31;35359;-75
2023/12/14 01:03:59;;;;;;;12.65;10.60;;;;;;;;;;5589790;31;35403;-75
2023/12/14 01:07:02;;;;;;;14.05;11.40;;;;;;;;;;5590091;31;34874;-76
2023/12/14 01:10:05;;;;;;;12.32;10.93;;;;;;;;;;5589660;31;35404;-77
2023/12/14 01:13:08;;;;;;;14.40;11.90;;;;;;;;;;5589758;31;35328;-76
2023/12/14 01:16:10;;;;;;;15.25;12.07;;;;;;;;;;5589539;31;35356;-76
2023/12/14 01:19:13;;;;;;;15.27;11.95;;;;;;;;;;5589730;31;34735;-76
2023/12/14 01:22:15;;;;;;;14.93;11.90;;;;;;;;;;5589640;31;35357;-76
2023/12/14 01:25:18;;;;;;;12.45;10.40;;;;;;;;;;5589630;31;34642;-76
2023/12/14 01:28:20;;;;;;;13.23;11.02;;;;;;;;;;5589496;31;35361;-76
2023/12/14 01:31:24;;;;;;;14.95;11.65;;;;;;;;;;5588934;31;34653;-76
2023/12/14 01:34:26;;;;;;;15.90;11.82;;;;;;;;;;5589411;31;34476;-76
2023/12/14 01:37:29;;;;;;;17.35;12.85;;;;;;;;;;5589371;31;34472;-75
2023/12/14 01:40:32;;;;;;;19.92;14.10;;;;;;;;;;5589405;31;34606;-74
2023/12/14 01:43:34;;;;;;;20.35;14.43;;;;;;;;;;5589410;31;35409;-75
2023/12/14 01:46:37;;;;;;;24.00;15.50;;;;;;;;;;5589308;31;34921;-76
2023/12/14 01:49:41;;;;;;;26.00;16.55;;;;;;;;;;5589333;31;34715;-75
2023/12/14 01:52:43;;;;;;;25.50;16.95;;;;;;;;;;5589278;31;35530;-76
2023/12/14 01:55:46;;;;;;;23.73;17.25;;;;;;;;;;5589664;31;34680;-75
2023/12/14 01:58:49;;;;;;;29.42;18.92;;;;;;;;;;5589262;31;34596;-76
2023/12/14 02:01:53;;;;;;;33.88;20.62;;;;;;;;;;5589267;31;35382;-76
2023/12/14 02:04:55;;;;;;;36.88;21.05;;;;;;;;;;5589127;31;35327;-76
2023/12/14 02:07:58;;;;;;;34.78;21.75;;;;;;;;;;5589166;31;34722;-76
2023/12/14 02:11:01;;;;;;;36.90;22.50;;;;;;;;;;5589352;31;35526;-76
2023/12/14 02:14:04;;;;;;;38.55;23.27;;;;;;;;;;5589143;31;34783;-76
2023/12/14 02:17:07;;;;;;;41.35;23.58;;;;;;;;;;5588855;31;34648;-77
2023/12/14 02:20:10;;;;;;;45.17;25.75;;;;;;;;;;5589083;31;35433;-76
2023/12/14 02:23:13;;;;;;;43.55;25.00;;;;;;;;;;5589428;31;34754;-75
2023/12/14 02:26:15;;;;;;;43.40;25.23;;;;;;;;;;5589250;31;34587;-75
2023/12/14 02:29:18;;;;;;;36.38;23.17;;;;;;;;;;5588986;31;34954;-76
2023/12/14 02:32:21;;;;;;;38.55;23.38;;;;;;;;;;5588933;31;34746;-76
2023/12/14 02:35:27;;;;;;;40.35;24.05;;;;;;;;;;5589103;31;34759;-75
2023/12/14 02:38:30;;;;;;;40.45;24.02;;;;;;;;;;5588808;31;34694;-75
2023/12/14 02:41:33;;;;;;;40.33;24.10;;;;;;;;;;5587643;31;34673;-76
2023/12/14 02:44:35;;;;;;;36.75;22.80;;;;;;;;;;5588820;31;35407;-75
2023/12/14 02:47:38;;;;;;;36.05;21.98;;;;;;;;;;5588726;31;34649;-75
2023/12/14 02:50:40;;;;;;;33.80;22.05;;;;;;;;;;5588827;31;34488;-75
2023/12/14 02:53:43;;;;;;;35.53;22.75;;;;;;;;;;5588771;31;34734;-75
2023/12/14 02:56:45;;;;;;;36.47;22.30;;;;;;;;;;5588763;31;35215;-76
2023/12/14 02:59:48;;;;;;;35.60;22.00;;;;;;;;;;5588746;31;34593;-75
2023/12/14 03:02:50;;;;;;;32.40;21.75;;;;;;;;;;5588797;31;34806;-75
2023/12/14 03:05:54;;;;;;;29.87;20.70;;;;;;;;;;5588774;31;34607;-76
2023/12/14 03:08:56;;;;;;;31.65;21.27;;;;;;;;;;5588928;31;34666;-75
2023/12/14 03:12:00;;;;;;;31.58;21.77;;;;;;;;;;5588682;31;34586;-74
2023/12/14 03:15:02;;;;;;;32.60;21.08;;;;;;;;;;5588519;31;34424;-76
2023/12/14 03:18:05;;;;;;;34.60;23.12;;;;;;;;;;5588917;31;35384;-75
2023/12/14 03:21:07;;;;;;;35.45;23.17;;;;;;;;;;5588918;31;34587;-74
2023/12/14 03:24:10;;;;;;;32.45;22.23;;;;;;;;;;5588739;31;34591;-76
2023/12/14 03:27:12;;;;;;;34.00;22.95;;;;;;;;;;5588392;31;34744;-75
2023/12/14 03:30:15;;;;;;;35.05;23.00;;;;;;;;;;5588508;31;35262;-76
2023/12/14 03:33:17;;;;;;;31.75;22.17;;;;;;;;;;5588278;31;35352;-75
2023/12/14 03:36:22;;;;;;;32.50;22.00;;;;;;;;;;5588446;31;35296;-75
2023/12/14 03:39:24;;;;;;;34.17;21.87;;;;;;;;;;5588240;31;34692;-75
2023/12/14 03:42:27;;;;;;;38.60;24.98;;;;;;;;;;5588776;31;34654;-75
2023/12/14 03:45:30;;;;;;;38.33;23.83;;;;;;;;;;5588305;31;34646;-77
2023/12/14 03:48:33;;;;;;;38.72;23.87;;;;;;;;;;5587551;31;35374;-75
2023/12/14 03:51:35;;;;;;;37.78;24.23;;;;;;;;;;5588365;31;35329;-76
2023/12/14 03:54:38;;;;;;;39.15;24.30;;;;;;;;;;5587112;31;35278;-76
2023/12/14 03:57:41;;;;;;;39.55;25.35;;;;;;;;;;5588094;31;35420;-75
2023/12/14 04:00:46;;;;;;;35.40;23.17;;;;;;;;;;5587690;31;34495;-76
2023/12/14 04:03:49;;;;;;;35.60;23.48;;;;;;;;;;5588439;31;35362;-76
2023/12/14 04:06:51;;;;;;;34.60;23.10;;;;;;;;;;5588322;31;34948;-76
2023/12/14 04:09:54;;;;;;;34.83;23.20;;;;;;;;;;5587956;31;35305;-77
2023/12/14 04:12:57;;;;;;;34.00;22.37;;;;;;;;;;5588019;31;34761;-77
2023/12/14 04:16:00;;;;;;;33.15;22.73;;;;;;;;;;5583161;31;156655;-76
2023/12/14 04:19:03;;;;;;;36.05;23.80;;;;;;;;;;5587614;31;35475;-76
2023/12/14 04:22:06;;;;;;;37.55;24.35;;;;;;;;;;5587746;31;34554;-77
2023/12/14 04:25:08;;;;;;;39.72;25.80;;;;;;;;;;5587169;31;35284;-76
2023/12/14 04:28:11;;;;;;;38.28;25.45;;;;;;;;;;5587557;31;35377;-77
2023/12/14 04:31:13;;;;;;;35.45;24.33;;;;;;;;;;5587383;31;34174;-77
2023/12/14 04:34:17;;;;;;;36.42;24.05;;;;;;;;;;5586982;31;34857;-76
2023/12/14 04:37:20;;;;;;;35.75;23.73;;;;;;;;;;5587275;31;34695;-77
2023/12/14 04:40:22;;;;;;;32.72;22.37;;;;;;;;;;5587323;31;34642;-76
2023/12/14 04:43:25;;;;;;;32.97;21.90;;;;;;;;;;5587363;31;34757;-76
2023/12/14 04:46:28;;;;;;;32.08;21.73;;;;;;;;;;5587231;31;35372;-76
2023/12/14 04:49:30;;;;;;;34.38;22.67;;;;;;;;;;5587435;31;34588;-77
2023/12/14 04:52:33;;;;;;;36.20;23.90;;;;;;;;;;5587038;31;35325;-73
2023/12/14 04:55:36;;;;;;;40.17;25.50;;;;;;;;;;5586982;31;34751;-73
2023/12/14 04:58:39;;;;;;;39.65;26.50;;;;;;;;;;5586908;31;34664;-74
2023/12/14 05:01:42;;;;;;;47.70;29.33;;;;;;;;;;5587233;31;34920;-76
2023/12/14 05:04:44;;;;;;;47.47;29.87;;;;;;;;;;5587451;31;35351;-73
2023/12/14 05:07:47;;;;;;;49.78;29.45;;;;;;;;;;5589642;31;35306;-73
2023/12/14 05:10:50;;;;;;;51.17;29.80;;;;;;;;;;5589621;31;35357;-75
2023/12/14 05:13:52;;;;;;;51.13;30.12;;;;;;;;;;5589671;31;35248;-75
2023/12/14 05:16:55;;;;;;;51.85;30.40;;;;;;;;;;5589559;31;34687;-76
2023/12/14 05:19:58;;;;;;;51.20;30.92;;;;;;;;;;5589598;31;34751;-75
2023/12/14 05:23:01;;;;;;;47.03;29.58;;;;;;;;;;5589663;31;34666;-74
2023/12/14 05:26:04;;;;;;;49.55;29.50;;;;;;;;;;5589819;31;34771;-75
2023/12/14 05:29:07;;;;;;;44.45;28.87;;;;;;;;;;5589884;31;34721;-76
2023/12/14 05:32:09;;;;;;;50.50;29.98;;;;;;;;;;5589650;31;34660;-74
2023/12/14 05:35:12;;;;;;;49.90;29.70;;;;;;;;;;5588973;31;35347;-75
2023/12/14 05:38:15;;;;;;;48.28;29.83;;;;;;;;;;5589173;31;34546;-73
2023/12/14 05:41:17;;;;;;;48.87;29.50;;;;;;;;;;5589196;31;34592;-73
2023/12/14 05:44:19;;;;;;;47.83;30.27;;;;;;;;;;5589133;31;34752;-73
2023/12/14 05:47:22;;;;;;;50.75;30.75;;;;;;;;;;5589202;31;35415;-74
2023/12/14 05:50:25;;;;;;;48.45;29.73;;;;;;;;;;5589157;31;35306;-74
2023/12/14 05:53:28;;;;;;;52.17;31.30;;;;;;;;;;5588716;31;34699;-73
2023/12/14 05:56:30;;;;;;;49.92;31.10;;;;;;;;;;5588331;31;34698;-74
2023/12/14 05:59:33;;;;;;;50.70;31.15;;;;;;;;;;5589102;31;34553;-73
2023/12/14 06:02:36;;;;;;;49.90;31.15;;;;;;;;;;5588994;31;35387;-73
2023/12/14 06:05:40;;;;;;;50.12;32.08;;;;;;;;;;5588825;31;34771;-73
2023/12/14 06:08:43;;;;;;;51.60;31.75;;;;;;;;;;5589146;31;34661;-74
2023/12/14 06:11:46;;;;;;;51.25;31.62;;;;;;;;;;5588637;31;34905;-74
2023/12/14 06:14:49;;;;;;;52.62;32.53;;;;;;;;;;5588462;31;35295;-74
2023/12/14 06:17:52;;;;;;;52.97;31.70;;;;;;;;;;5588378;31;35292;-74
2023/12/14 06:20:55;;;;;;;50.95;31.55;;;;;;;;;;5588838;31;35502;-75
2023/12/14 06:23:59;;;;;;;52.53;32.58;;;;;;;;;;5588861;31;35344;-75
2023/12/14 06:27:01;;;;;;;49.72;32.05;;;;;;;;;;5588745;31;34624;-75
2023/12/14 06:30:04;;;;;;;46.95;31.62;;;;;;;;;;5588631;31;34551;-74
2023/12/14 06:33:07;;;;;;;49.13;31.20;;;;;;;;;;5588576;31;34445;-74
2023/12/14 06:36:10;;;;;;;51.65;32.38;;;;;;;;;;5588616;31;34760;-74
2023/12/14 06:39:12;;;;;;;48.28;31.10;;;;;;;;;;5587993;31;34288;-74
2023/12/14 06:42:15;;;;;;;49.65;31.70;;;;;;;;;;5589169;31;35323;-73
2023/12/14 06:45:17;;;;;;;47.28;30.52;;;;;;;;;;5588369;31;35412;-74
2023/12/14 06:48:20;;;;;;;46.65;30.52;;;;;;;;;;5588455;31;35281;-74
2023/12/14 06:51:23;;;;;;;47.50;31.95;;;;;;;;;;5588055;31;34706;-74
2023/12/14 06:54:25;;;;;;;50.80;32.97;;;;;;;;;;5588313;31;35428;-76
2023/12/14 06:57:29;;;;;;;46.33;31.27;;;;;;;;;;5588276;31;34715;-75
2023/12/14 07:00:31;;;;;;;45.17;29.73;;;;;;;;;;5588263;31;34529;-74
2023/12/14 07:03:33;;;;;;;47.38;30.05;;;;;;;;;;5588237;31;35396;-75
2023/12/14 07:06:37;;;;;;;43.13;29.55;;;;;;;;;;5588133;31;35357;-76
2023/12/14 07:09:39;;;;;;;44.25;29.77;;;;;;;;;;5588967;31;34414;-76
2023/12/14 07:12:43;;;;;;;44.58;31.10;;;;;;;;;;5588338;31;34683;-76
2023/12/14 07:15:46;;;;;;;42.65;29.77;;;;;;;;;;5588280;31;34609;-77
2023/12/14 07:18:49;;;;;;;41.85;29.20;;;;;;;;;;5588105;31;34659;-76
2023/12/14 07:21:52;;;;;;;40.15;28.80;;;;;;;;;;5588240;31;34790;-77
2023/12/14 07:24:54;;;;;;;39.30;27.70;;;;;;;;;;5587940;31;35447;-76
2023/12/14 07:28:02;;;;;;;41.17;28.77;;;;;;;;;;5587149;31;35398;-76
2023/12/14 07:31:05;;;;;;;37.72;27.27;;;;;;;;;;5587922;31;34542;-76
2023/12/14 07:34:07;;;;;;;35.58;26.17;;;;;;;;;;5588170;31;35384;-76
2023/12/14 07:37:11;;;;;;;35.78;26.73;;;;;;;;;;5588092;31;34621;-75
2023/12/14 07:40:14;;;;;;;36.67;27.20;;;;;;;;;;5587873;31;34638;-75
2023/12/14 07:43:16;;;;;;;37.28;26.90;;;;;;;;;;5587924;31;35395;-76
2023/12/14 07:46:18;;;;;;;36.63;27.00;;;;;;;;;;5588146;31;35396;-75
2023/12/14 07:49:23;;;;;;;37.20;27.58;;;;;;;;;;5588121;31;35553;-75
2023/12/14 07:52:25;;;;;;;36.95;26.98;;;;;;;;;;5587861;31;34778;-74
2023/12/14 07:55:28;;;;;;;35.53;26.80;;;;;;;;;;5587911;31;34656;-75
2023/12/14 07:58:31;;;;;;;37.33;27.55;;;;;;;;;;5588068;31;34751;-75
2023/12/14 08:01:34;;;;;;;40.00;28.45;;;;;;;;;;5587598;31;34758;-75
2023/12/14 08:04:36;;;;;;;33.70;25.77;;;;;;;;;;5587515;31;34645;-75
2023/12/14 08:07:39;;;;;;;32.80;25.42;;;;;;;;;;5587514;31;34708;-76
2023/12/14 08:10:42;;;;;;;37.75;27.10;;;;;;;;;;5587351;31;34850;-75
2023/12/14 08:13:45;;;;;;;36.08;26.58;;;;;;;;;;5587466;31;34776;-75
2023/12/14 08:16:47;;;;;;;35.97;27.17;;;;;;;;;;5587650;31;34408;-77
2023/12/14 08:19:50;;;;;;;33.65;26.00;;;;;;;;;;5587977;31;34504;-75
2023/12/14 08:22:52;;;;;;;34.30;26.42;;;;;;;;;;5587218;31;34820;-74
2023/12/14 08:25:56;;;;;;;33.80;25.50;;;;;;;;;;5587555;31;34646;-75
2023/12/14 08:28:59;;;;;;;34.00;25.77;;;;;;;;;;5587265;31;34481;-75
2023/12/14 08:32:01;;;;;;;32.88;24.98;;;;;;;;;;5587375;31;34831;-75
2023/12/14 08:35:04;;;;;;;32.60;24.85;;;;;;;;;;5587196;31;34926;-76
2023/12/14 08:38:07;;;;;;;31.33;24.75;;;;;;;;;;5587241;31;34904;-76
2023/12/14 08:41:14;;;;;;;31.33;23.85;;;;;;;;;;5588872;31;34922;-76
2023/12/14 08:44:17;;;;;;;32.97;24.73;;;;;;;;;;5589784;31;35361;-76
2023/12/14 08:47:20;;;;;;;34.17;25.55;;;;;;;;;;5590115;31;34815;-76
2023/12/14 08:50:22;;;;;;;32.90;24.60;;;;;;;;;;5589955;31;34630;-76
2023/12/14 08:53:25;;;;;;;33.13;24.85;;;;;;;;;;5589599;31;35241;-76
2023/12/14 08:56:28;;;;;;;31.62;23.92;;;;;;;;;;5589694;31;34569;-75
2023/12/14 08:59:31;;;;;;;30.27;23.67;;;;;;;;;;5589302;31;35417;-76
2023/12/14 09:02:35;;;;;;;31.15;23.27;;;;;;;;;;5589799;31;34584;-77
2023/12/14 09:05:41;;;;;;;29.45;22.98;;;;;;;;;;5589610;31;35337;-76
2023/12/14 09:08:45;;;;;;;29.87;22.83;;;;;;;;;;5589447;31;34608;-75
2023/12/14 09:11:47;;;;;;;27.90;21.00;;;;;;;;;;5589518;31;34778;-75
2023/12/14 09:14:51;;;;;;;27.45;21.52;;;;;;;;;;5589281;31;35421;-76
2023/12/14 09:17:54;;;;;;;28.25;21.77;;;;;;;;;;5589399;31;34739;-76
2023/12/14 09:20:56;;;;;;;27.00;21.33;;;;;;;;;;5589509;31;35418;-75
2023/12/14 09:23:59;;;;;;;26.40;21.25;;;;;;;;;;5589376;31;34670;-76
2023/12/14 09:27:02;;;;;;;26.48;21.73;;;;;;;;;;5588813;31;34755;-75
2023/12/14 09:30:05;;;;;;;28.27;22.10;;;;;;;;;;5589272;31;35387;-75
2023/12/14 09:33:08;;;;;;;26.52;21.35;;;;;;;;;;5589344;31;34649;-75
2023/12/14 09:36:12;;;;;;;27.33;20.35;;;;;;;;;;5589068;31;34673;-75
2023/12/14 09:39:15;;;;;;;28.08;20.90;;;;;;;;;;5589043;31;35423;-76
2023/12/14 09:42:20;;;;;;;24.30;19.90;;;;;;;;;;5588460;31;34688;-75
2023/12/14 09:45:29;;;;;;;27.08;20.52;;;;;;;;;;5589275;31;34491;-76
2023/12/14 09:48:33;;;;;;;26.10;20.97;;;;;;;;;;5589345;31;35492;-76
2023/12/14 09:51:36;;;;;;;23.98;19.12;;;;;;;;;;5588772;31;34562;-75
2023/12/14 09:54:39;;;;;;;24.55;19.90;;;;;;;;;;5589563;31;34786;-76
2023/12/14 09:57:42;;;;;;;24.45;18.87;;;;;;;;;;5589047;31;34550;-77
2023/12/14 10:00:45;;;;;;;24.50;19.37;;;;;;;;;;5588899;31;34938;-74
2023/12/14 10:03:47;;;;;;;22.55;18.65;;;;;;;;;;5589036;31;34387;-75
2023/12/14 10:06:50;;;;;;;24.23;18.85;;;;;;;;;;5588747;31;34683;-74
2023/12/14 10:09:53;;;;;;;22.60;18.35;;;;;;;;;;5588765;31;34835;-75
2023/12/14 10:12:55;;;;;;;23.02;18.37;;;;;;;;;;5588998;31;35166;-75
2023/12/14 10:15:58;;;;;;;22.60;17.98;;;;;;;;;;5588727;31;34867;-73
2023/12/14 10:19:00;;;;;;;21.50;17.42;;;;;;;;;;5589021;31;34557;-76
2023/12/14 10:22:04;;;;;;;21.65;16.80;;;;;;;;;;5588895;31;35279;-77
2023/12/14 10:25:09;;;;;;;19.62;16.30;;;;;;;;;;5589024;31;34515;-77
2023/12/14 10:28:13;;;;;;;20.58;16.27;;;;;;;;;;5588741;31;34685;-77
2023/12/14 10:31:15;;;;;;;19.70;15.80;;;;;;;;;;5589040;31;34674;-77
2023/12/14 10:34:18;;;;;;;22.70;15.73;;;;;;;;;;5588809;31;35506;-78
2023/12/14 10:37:21;;;;;;;18.40;15.18;;;;;;;;;;5588881;31;34730;-77
2023/12/14 10:40:24;;;;;;;19.15;15.70;;;;;;;;;;5588053;31;34856;-76
2023/12/14 10:43:27;;;;;;;18.35;15.48;;;;;;;;;;5588618;31;34737;-75
2023/12/14 10:46:32;;;;;;;21.83;16.35;;;;;;;;;;5589258;31;34797;-77
2023/12/14 10:49:36;;;;;;;21.23;15.73;;;;;;;;;;5589012;31;34589;-77
2023/12/14 10:52:39;;;;;;;20.10;16.30;;;;;;;;;;5593187;31;34665;-76
2023/12/14 10:55:44;;;;;;;19.50;16.40;;;;;;;;;;5589805;31;34736;-76
2023/12/14 10:58:54;;;;;;;20.12;16.77;;;;;;;;;;5590355;31;34824;-76
2023/12/14 11:01:57;;;;;;;21.92;17.25;;;;;;;;;;5587609;31;35424;-76
2023/12/14 11:05:05;;;;;;;23.40;18.02;;;;;;;;;;5587306;31;34730;-77
2023/12/14 11:08:12;;;;;;;20.92;17.50;;;;;;;;;;5588575;31;34699;-77
2023/12/14 11:11:20;;;;;;;21.70;17.50;;;;;;;;;;5587670;31;35356;-76
2023/12/14 11:14:26;;;;;;;23.83;18.42;;;;;;;;;;5588633;31;35394;-76
2023/12/14 11:17:29;;;;;;;22.70;18.45;;;;;;;;;;5588769;31;34573;-76
2023/12/14 11:20:46;;;;;;;25.85;19.50;;;;;;;;;;5588440;31;35325;-77
2023/12/14 11:23:50;;;;;;;23.33;18.83;;;;;;;;;;5588244;31;35373;-76
2023/12/14 11:26:53;;;;;;;24.45;19.33;;;;;;;;;;5588087;31;34577;-76
2023/12/14 11:29:57;;;;;;;23.80;18.48;;;;;;;;;;5587945;31;34400;-77
2023/12/14 11:33:00;;;;;;;22.55;18.20;;;;;;;;;;5587558;31;34919;-77
2023/12/14 11:36:03;;;;;;;21.55;17.10;;;;;;;;;;5588489;31;34664;-77
2023/12/14 11:39:05;;;;;;;22.30;18.05;;;;;;;;;;5588264;31;34477;-76
2023/12/14 11:42:10;;;;;;;22.75;17.98;;;;;;;;;;5588169;31;34914;-76
2023/12/14 11:45:12;;;;;;;23.92;17.65;;;;;;;;;;5588383;31;35385;-76
2023/12/14 11:48:16;;;;;;;22.35;17.52;;;;;;;;;;5588136;31;34721;-77
2023/12/14 11:51:18;;;;;;;23.42;18.00;;;;;;;;;;5588013;31;35386;-77
2023/12/14 11:54:22;;;;;;;23.00;17.17;;;;;;;;;;5587296;31;35532;-76
2023/12/14 11:57:28;;;;;;;21.05;17.30;;;;;;;;;;5587762;31;34584;-77
2023/12/14 12:00:31;;;;;;;23.15;17.90;;;;;;;;;;5587568;31;34684;-77
2023/12/14 12:03:33;;;;;;;23.00;16.92;;;;;;;;;;5587865;31;34697;-77
2023/12/14 12:06:36;;;;;;;22.40;17.40;;;;;;;;;;5587792;31;35381;-77
2023/12/14 12:09:41;;;;;;;22.52;16.67;;;;;;;;;;5587741;31;34629;-78
2023/12/14 12:12:44;;;;;;;20.98;16.50;;;;;;;;;;5587571;31;34661;-77
2023/12/14 12:15:48;;;;;;;21.05;16.55;;;;;;;;;;5588347;31;35396;-76
2023/12/14 12:18:51;;;;;;;19.67;15.77;;;;;;;;;;5587312;31;34736;-76
2023/12/14 12:21:54;;;;;;;18.85;15.30;;;;;;;;;;5586664;31;34593;-74
2023/12/14 12:24:58;;;;;;;20.08;16.05;;;;;;;;;;5587471;31;35353;-76
2023/12/14 12:28:13;;;;;;;20.00;15.57;;;;;;;;;;5587356;31;34724;-76
2023/12/14 12:31:16;;;;;;;19.30;15.35;;;;;;;;;;5587369;31;35347;-77
2023/12/14 12:34:18;;;;;;;19.83;16.50;;;;;;;;;;5587282;31;35249;-77
2023/12/14 12:37:22;;;;;;;21.30;16.23;;;;;;;;;;5587138;31;34599;-77
2023/12/14 12:40:30;;;;;;;19.35;15.77;;;;;;;;;;5586626;31;34388;-76
2023/12/14 12:43:33;;;;;;;19.95;15.88;;;;;;;;;;5587166;31;35268;-76
2023/12/14 12:46:36;;;;;;;19.23;16.00;;;;;;;;;;5587405;31;35413;-76
2023/12/14 12:49:38;;;;;;;23.23;16.90;;;;;;;;;;5586862;31;34580;-77
2023/12/14 12:52:42;;;;;;;20.95;16.05;;;;;;;;;;5586270;31;35339;-76
2023/12/14 12:55:44;;;;;;;23.73;16.77;;;;;;;;;;5586734;31;34570;-76
2023/12/14 12:58:49;;;;;;;25.25;16.80;;;;;;;;;;5586758;31;35309;-76
2023/12/14 13:01:53;;;;;;;19.05;15.93;;;;;;;;;;5586378;31;35305;-77
2023/12/14 13:04:57;;;;;;;19.73;16.50;;;;;;;;;;5586733;31;34766;-76
2023/12/14 13:08:00;;;;;;;22.15;16.10;;;;;;;;;;5586771;31;34461;-77
2023/12/14 13:11:03;;;;;;;22.50;16.70;;;;;;;;;;5586614;31;34707;-77
2023/12/14 13:14:07;;;;;;;23.35;16.95;;;;;;;;;;5586518;31;35491;-76
2023/12/14 13:17:10;;;;;;;21.23;16.23;;;;;;;;;;5586589;31;34656;-77
2023/12/14 13:20:13;;;;;;;30.17;17.52;;;;;;;;;;5586118;31;35061;-76
2023/12/14 13:23:16;;;;;;;24.52;17.35;;;;;;;;;;5586321;31;34782;-77
2023/12/14 13:26:18;;;;;;;21.05;16.85;;;;;;;;;;5587408;31;34967;-76
2023/12/14 13:29:21;;;;;;;22.92;16.42;;;;;;;;;;5589414;31;34676;-76
2023/12/14 13:32:23;;;;;;;26.87;18.05;;;;;;;;;;5589540;31;34742;-77
2023/12/14 13:35:27;;;;;;;26.33;17.37;;;;;;;;;;5589048;31;34513;-77
2023/12/14 13:38:33;;;;;;;21.85;16.60;;;;;;;;;;5589628;31;34617;-76
2023/12/14 13:41:36;;;;;;;20.10;16.62;;;;;;;;;;5589569;31;34891;-77
2023/12/14 13:44:51;;;;;;;24.98;16.42;;;;;;;;;;5588979;31;34674;-77
2023/12/14 13:47:56;;;;;;;21.50;16.30;;;;;;;;;;5589138;31;34838;-77
2023/12/14 13:50:58;;;;;;;22.08;16.30;;;;;;;;;;5588243;31;35345;-76
2023/12/14 13:54:01;;;;;;;20.10;16.02;;;;;;;;;;5589281;31;34718;-77
2023/12/14 13:57:03;;;;;;;21.12;15.65;;;;;;;;;;5588922;31;35324;-77
2023/12/14 14:00:06;;;;;;;20.42;15.10;;;;;;;;;;5588422;31;35399;-77
2023/12/14 14:03:09;;;;;;;20.40;15.00;;;;;;;;;;5589083;31;34808;-77
2023/12/14 14:06:12;;;;;;;18.42;14.55;;;;;;;;;;5588685;31;34701;-77
2023/12/14 14:09:15;;;;;;;19.45;14.80;;;;;;;;;;5588806;31;34654;-76
2023/12/14 14:12:17;;;;;;;18.50;14.13;;;;;;;;;;5588853;31;34581;-77
2023/12/14 14:15:21;;;;;;;18.52;14.52;;;;;;;;;;5588346;31;34798;-77
2023/12/14 14:18:23;;;;;;;17.52;13.82;;;;;;;;;;5588902;31;35331;-77
2023/12/14 14:21:26;;;;;;;19.37;14.30;;;;;;;;;;5588703;31;34869;-77
2023/12/14 14:24:28;;;;;;;18.25;13.15;;;;;;;;;;5589018;31;35456;-76
2023/12/14 14:27:32;;;;;;;17.02;13.82;;;;;;;;;;5588750;31;34523;-76
2023/12/14 14:30:35;;;;;;;20.33;14.23;;;;;;;;;;5589082;31;34624;-77
2023/12/14 14:33:38;;;;;;;19.27;14.05;;;;;;;;;;5589155;31;35226;-77
2023/12/14 14:36:41;;;;;;;17.62;13.57;;;;;;;;;;5588919;31;34714;-77
2023/12/14 14:39:44;;;;;;;17.60;13.23;;;;;;;;;;5588640;31;34844;-77
2023/12/14 14:42:46;;;;;;;17.95;13.30;;;;;;;;;;5588995;31;34696;-76
2023/12/14 14:45:49;;;;;;;18.10;12.82;;;;;;;;;;5588475;31;35351;-77
2023/12/14 14:48:52;;;;;;;16.70;12.37;;;;;;;;;;5588122;31;35333;-76
2023/12/14 14:51:54;;;;;;;17.37;12.90;;;;;;;;;;5588232;31;35245;-76
2023/12/14 14:54:57;;;;;;;18.87;13.10;;;;;;;;;;5587605;31;34421;-75
2023/12/14 14:58:01;;;;;;;23.55;12.63;;;;;;;;;;5588267;31;34882;-76
2023/12/14 15:01:04;;;;;;;18.10;12.63;;;;;;;;;;5588382;31;34592;-77
2023/12/14 15:04:07;;;;;;;17.30;12.68;;;;;;;;;;5588270;31;34655;-76
2023/12/14 15:07:09;;;;;;;15.45;12.10;;;;;;;;;;5588255;31;34588;-77
2023/12/14 15:10:13;;;;;;;19.62;14.50;;;;;;;;;;5588062;31;34709;-76
2023/12/14 15:13:17;;;;;;;19.08;12.85;;;;;;;;;;5588139;31;34130;-76
2023/12/14 15:16:24;;;;;;;17.60;13.13;;;;;;;;;;5587967;31;34565;-76
2023/12/14 15:19:27;;;;;;;18.58;13.27;;;;;;;;;;5588083;31;34741;-76
2023/12/14 15:22:30;;;;;;;18.12;13.30;;;;;;;;;;5587788;31;35294;-76
2023/12/14 15:25:34;;;;;;;19.30;13.40;;;;;;;;;;5587950;31;34653;-76
2023/12/14 15:28:37;;;;;;;19.35;13.30;;;;;;;;;;5587946;31;34531;-75
2023/12/14 15:31:40;;;;;;;23.48;14.77;;;;;;;;;;5588090;31;35336;-75
2023/12/14 15:34:43;;;;;;;19.58;14.45;;;;;;;;;;5587693;31;35496;-76
2023/12/14 15:37:45;;;;;;;21.58;15.90;;;;;;;;;;5588310;31;35276;-76
2023/12/14 15:40:48;;;;;;;21.83;15.82;;;;;;;;;;5587583;31;34694;-76
2023/12/14 15:43:50;;;;;;;23.10;17.40;;;;;;;;;;5587728;31;35406;-77
2023/12/14 15:46:53;;;;;;;23.55;17.83;;;;;;;;;;5587846;31;34645;-77
2023/12/14 15:49:56;;;;;;;24.95;18.58;;;;;;;;;;5587025;31;35250;-77
2023/12/14 15:52:59;;;;;;;23.38;18.35;;;;;;;;;;5587845;31;34692;-77
2023/12/14 15:56:01;;;;;;;24.92;19.50;;;;;;;;;;5587719;31;34471;-76
2023/12/14 15:59:06;;;;;;;24.48;19.17;;;;;;;;;;5587617;31;34686;-76
2023/12/14 16:02:10;;;;;;;24.85;19.70;;;;;;;;;;5587524;31;34850;-77
2023/12/14 16:05:13;;;;;;;26.37;20.55;;;;;;;;;;5587357;31;34482;-77
2023/12/14 16:08:16;;;;;;;25.33;20.62;;;;;;;;;;5586777;31;35410;-76
2023/12/14 16:11:18;;;;;;;26.62;21.15;;;;;;;;;;5587176;31;35313;-76
2023/12/14 16:14:21;;;;;;;26.98;20.85;;;;;;;;;;5587316;31;35346;-75
2023/12/14 16:17:24;;;;;;;27.77;22.42;;;;;;;;;;5587322;31;34654;-77
2023/12/14 16:20:27;;;;;;;26.23;20.92;;;;;;;;;;5587141;31;35368;-76
2023/12/14 16:23:31;;;;;;;28.10;22.15;;;;;;;;;;5587482;31;34605;-76
2023/12/14 16:26:38;;;;;;;29.65;21.98;;;;;;;;;;5587314;31;35438;-76
2023/12/14 16:29:41;;;;;;;28.75;21.52;;;;;;;;;;5587147;31;34845;-76
2023/12/14 16:32:44;;;;;;;27.33;22.05;;;;;;;;;;5586640;31;34806;-76
2023/12/14 16:35:47;;;;;;;26.62;21.60;;;;;;;;;;5587097;31;34654;-75
2023/12/14 16:38:50;;;;;;;27.13;21.70;;;;;;;;;;5587159;31;34883;-76
2023/12/14 16:41:52;;;;;;;27.20;21.62;;;;;;;;;;5586939;31;35354;-77
2023/12/14 16:44:55;;;;;;;27.17;21.83;;;;;;;;;;5587170;31;34647;-77
2023/12/14 16:47:57;;;;;;;25.50;20.40;;;;;;;;;;5586967;31;35297;-77
2023/12/14 16:51:02;;;;;;;25.15;20.00;;;;;;;;;;5587042;31;35418;-77
2023/12/14 16:54:05;;;;;;;25.12;20.20;;;;;;;;;;5587337;31;34450;-76
2023/12/14 16:57:07;;;;;;;25.52;20.30;;;;;;;;;;5586796;31;34630;-77
2023/12/14 17:00:10;;;;;;;22.73;18.35;;;;;;;;;;5586792;31;34496;-77
2023/12/14 17:03:13;;;;;;;23.98;18.80;;;;;;;;;;5589397;31;35448;-77
2023/12/14 17:06:19;;;;;;;24.40;19.02;;;;;;;;;;5589565;31;35366;-77
2023/12/14 17:09:22;;;;;;;25.00;19.05;;;;;;;;;;5589385;31;34858;-77
2023/12/14 17:12:25;;;;;;;23.60;18.77;;;;;;;;;;5589630;31;35277;-76
2023/12/14 17:15:27;;;;;;;22.08;17.67;;;;;;;;;;5589407;31;35272;-77
2023/12/14 17:18:30;;;;;;;23.27;18.12;;;;;;;;;;5589556;31;35246;-77
2023/12/14 17:21:32;;;;;;;24.08;17.73;;;;;;;;;;5589333;31;34718;-77
2023/12/14 17:24:35;;;;;;;23.35;17.95;;;;;;;;;;5589469;31;34891;-77
2023/12/14 17:27:37;;;;;;;23.40;17.73;;;;;;;;;;5589355;31;35359;-77
2023/12/14 17:30:41;;;;;;;24.50;17.92;;;;;;;;;;5589260;31;34704;-77
2023/12/14 17:33:43;;;;;;;23.50;18.02;;;;;;;;;;5589216;31;35255;-79
2023/12/14 17:36:46;;;;;;;24.40;18.17;;;;;;;;;;5589717;31;34598;-78
2023/12/14 17:39:49;;;;;;;21.75;17.30;;;;;;;;;;5589315;31;34670;-77
2023/12/14 17:42:51;;;;;;;22.83;17.48;;;;;;;;;;5589155;31;34560;-77
2023/12/14 17:45:54;;;;;;;22.83;17.00;;;;;;;;;;5589115;31;34594;-77